createdAt,value
2023-01-22T00:00:19.938Z,-0.58
2023-01-22T00:02:49.245Z,-0.68
2023-01-22T00:05:17.976Z,-0.62
2023-01-22T00:07:47.656Z,-0.75
2023-01-22T00:10:16.217Z,-0.76
2023-01-22T00:12:44.363Z,-0.76
2023-01-22T00:15:12.529Z,-0.84
2023-01-22T00:17:40.522Z,-0.83
2023-01-22T00:20:10.583Z,-0.81
2023-01-22T00:22:38.746Z,-0.92
2023-01-22T00:25:11.440Z,-0.83
2023-01-22T00:27:41.826Z,-0.84
2023-01-22T00:30:11.476Z,-0.82
2023-01-22T00:32:39.406Z,-0.80
2023-01-22T00:35:08.141Z,-0.82
2023-01-22T00:37:36.103Z,-0.90
2023-01-22T00:40:07.527Z,-0.83
2023-01-22T00:42:36.861Z,-0.97
2023-01-22T00:45:05.381Z,-0.76
2023-01-22T00:47:33.407Z,-0.84
2023-01-22T00:50:01.491Z,-0.89
2023-01-22T00:52:30.376Z,-0.85
2023-01-22T00:54:59.772Z,-0.87
2023-01-22T00:57:27.833Z,-0.88
2023-01-22T00:59:57.336Z,-0.77
2023-01-22T01:02:25.396Z,-0.81
2023-01-22T01:04:54.029Z,-0.79
2023-01-22T01:07:22.032Z,-0.74
2023-01-22T01:09:50.090Z,-0.84
2023-01-22T01:12:18.425Z,-0.86
2023-01-22T01:14:47.659Z,-0.78
2023-01-22T01:17:17.069Z,-0.85
2023-01-22T01:19:45.114Z,-0.84
2023-01-22T01:22:16.771Z,-0.84
2023-01-22T01:24:44.787Z,-0.83
2023-01-22T01:27:12.848Z,-0.90
2023-01-22T01:29:40.865Z,-0.90
2023-01-22T01:32:10.713Z,-0.79
2023-01-22T01:34:40.070Z,-0.86
2023-01-22T01:37:08.062Z,-0.89
2023-01-22T01:39:36.160Z,-0.83
2023-01-22T01:42:04.519Z,-0.83
2023-01-22T01:44:32.815Z,-0.82
2023-01-22T01:47:02.148Z,-0.81
2023-01-22T01:49:33.144Z,-0.76
2023-01-22T01:52:04.399Z,-0.84
2023-01-22T01:54:32.790Z,-0.83
2023-01-22T01:57:03.275Z,-0.89
2023-01-22T01:59:33.627Z,-0.82
2023-01-22T02:02:03.123Z,-0.83
2023-01-22T02:04:31.326Z,-0.66
2023-01-22T02:06:59.330Z,-0.80
2023-01-22T02:09:28.847Z,-0.79
2023-01-22T02:11:56.813Z,-0.80
2023-01-22T02:14:28.025Z,-0.80
2023-01-22T02:17:02.989Z,-0.72
2023-01-22T02:19:31.126Z,-0.84
2023-01-22T02:22:00.614Z,-0.73
2023-01-22T02:24:30.736Z,-0.73
2023-01-22T02:26:58.763Z,-0.70
2023-01-22T02:29:29.019Z,-0.70
2023-01-22T02:31:57.565Z,-0.82
2023-01-22T02:34:25.580Z,-0.70
2023-01-22T02:36:53.611Z,-0.71
2023-01-22T02:39:23.016Z,-0.66
2023-01-22T02:41:51.035Z,-0.64
2023-01-22T02:44:19.359Z,-0.62
2023-01-22T02:46:47.503Z,-0.72
2023-01-22T02:49:15.731Z,-0.71
2023-01-22T02:51:43.769Z,-0.62
2023-01-22T02:54:12.193Z,-0.64
2023-01-22T02:56:41.635Z,-0.68
2023-01-22T02:59:09.892Z,-0.68
2023-01-22T03:01:38.329Z,-0.74
2023-01-22T03:04:10.971Z,-0.70
2023-01-22T03:06:39.824Z,-0.64
2023-01-22T03:09:08.104Z,-0.69
2023-01-22T03:11:36.845Z,-0.62
2023-01-22T03:14:23.762Z,-0.66
2023-01-22T03:17:09.544Z,-0.74
2023-01-22T03:19:54.930Z,-0.71
2023-01-22T03:22:22.928Z,-0.79
2023-01-22T03:24:53.034Z,-0.78
2023-01-22T03:27:21.852Z,-0.80
2023-01-22T03:29:51.325Z,-0.79
2023-01-22T03:32:20.062Z,-0.77
2023-01-22T03:34:48.261Z,-0.77
2023-01-22T03:37:16.320Z,-0.81
2023-01-22T03:39:44.361Z,-0.76
2023-01-22T03:42:12.356Z,-0.86
2023-01-22T03:44:40.625Z,-0.79
2023-01-22T03:47:10.066Z,-0.81
2023-01-22T03:49:38.575Z,-0.74
2023-01-22T03:52:06.590Z,-0.73
2023-01-22T03:54:35.025Z,-0.85
2023-01-22T03:57:03.518Z,-0.83
2023-01-22T03:59:31.680Z,-0.81
2023-01-22T04:01:59.663Z,-0.73
2023-01-22T04:04:29.178Z,-0.79
2023-01-22T04:06:57.162Z,-0.72
2023-01-22T04:09:25.243Z,-0.77
2023-01-22T04:11:53.239Z,-0.81
2023-01-22T04:14:21.186Z,-0.79
2023-01-22T04:16:52.236Z,-0.75
2023-01-22T04:19:20.235Z,-0.65
2023-01-22T04:21:49.903Z,-0.72
2023-01-22T04:24:19.496Z,-0.78
2023-01-22T04:26:47.730Z,-0.70
2023-01-22T04:29:15.719Z,-0.71
2023-01-22T04:31:44.522Z,-0.76
2023-01-22T04:34:12.529Z,-0.72
2023-01-22T04:36:40.577Z,-0.65
2023-01-22T04:39:09.957Z,-0.64
2023-01-22T04:41:37.992Z,-0.77
2023-01-22T04:44:06.172Z,-0.86
2023-01-22T04:46:36.909Z,-0.73
2023-01-22T04:49:04.923Z,-0.73
2023-01-22T04:51:33.179Z,-0.74
2023-01-22T04:54:04.080Z,-0.76
2023-01-22T04:56:33.542Z,-0.77
2023-01-22T04:59:01.689Z,-0.76
2023-01-22T05:01:29.853Z,-0.73
2023-01-22T05:03:57.952Z,-0.73
2023-01-22T05:06:26.457Z,-0.69
2023-01-22T05:08:54.561Z,-0.75
2023-01-22T05:11:22.558Z,-0.72
2023-01-22T05:13:52.002Z,-0.64
2023-01-22T05:16:20.050Z,-0.61
2023-01-22T05:18:48.223Z,-0.72
2023-01-22T05:21:16.194Z,-0.71
2023-01-22T05:23:44.752Z,-0.70
2023-01-22T05:26:12.745Z,-0.70
2023-01-22T05:28:41.138Z,-0.77
2023-01-22T05:31:11.278Z,-0.67
2023-01-22T05:33:40.307Z,-0.69
2023-01-22T05:36:08.599Z,-0.64
2023-01-22T05:38:36.661Z,-0.60
2023-01-22T05:41:05.041Z,-0.61
2023-01-22T05:43:33.138Z,-0.64
2023-01-22T05:46:02.009Z,-0.62
2023-01-22T05:48:33.147Z,-0.67
2023-01-22T05:51:04.777Z,-0.70
2023-01-22T05:53:33.045Z,-0.65
2023-01-22T05:56:02.742Z,-0.62
2023-01-22T05:58:30.866Z,-0.65
2023-01-22T06:00:59.014Z,-0.64
2023-01-22T06:03:27.072Z,-0.66
2023-01-22T06:06:02.974Z,-0.59
2023-01-22T06:08:31.988Z,-0.61
2023-01-22T06:11:02.219Z,-0.62
2023-01-22T06:13:30.311Z,-0.61
2023-01-22T06:15:58.371Z,-0.66
2023-01-22T06:18:26.343Z,-0.70
2023-01-22T06:20:54.451Z,-0.68
2023-01-22T06:23:26.021Z,-0.65
2023-01-22T06:25:54.139Z,-0.60
2023-01-22T06:28:22.154Z,-0.65
2023-01-22T06:30:50.678Z,-0.60
2023-01-22T06:33:19.115Z,-0.60
2023-01-22T06:35:47.133Z,-0.65
2023-01-22T06:38:15.094Z,-0.55
2023-01-22T06:40:44.581Z,-0.46
2023-01-22T06:43:12.574Z,-0.58
2023-01-22T06:45:40.568Z,-0.56
2023-01-22T06:48:08.597Z,-0.64
2023-01-22T06:50:36.718Z,-0.57
2023-01-22T06:53:05.966Z,-0.53
2023-01-22T06:55:34.261Z,-0.65
2023-01-22T06:58:06.635Z,-0.60
2023-01-22T07:00:34.747Z,-0.61
2023-01-22T07:03:06.166Z,-0.67
2023-01-22T07:05:34.523Z,-0.69
2023-01-22T07:08:02.815Z,-0.60
2023-01-22T07:10:30.820Z,-0.56
2023-01-22T07:13:00.043Z,-0.67
2023-01-22T07:15:29.481Z,-0.60
2023-01-22T07:17:57.487Z,-0.59
2023-01-22T07:20:25.445Z,-0.61
2023-01-22T07:22:53.478Z,-0.63
2023-01-22T07:25:21.958Z,-0.59
2023-01-22T07:27:53.410Z,-0.58
2023-01-22T07:30:21.735Z,-0.57
2023-01-22T07:32:51.809Z,-0.61
2023-01-22T07:35:20.581Z,-0.67
2023-01-22T07:37:52.827Z,-0.62
2023-01-22T07:40:21.119Z,-0.59
2023-01-22T07:42:49.289Z,-0.58
2023-01-22T07:45:19.275Z,-0.60
2023-01-22T07:47:54.915Z,-0.69
2023-01-22T07:50:24.033Z,-0.66
2023-01-22T07:52:52.144Z,-0.65
2023-01-22T07:55:20.252Z,-0.49
2023-01-22T07:57:50.703Z,-0.58
2023-01-22T08:00:19.781Z,-0.54
2023-01-22T08:02:50.222Z,-0.51
2023-01-22T08:05:20.115Z,-0.47
2023-01-22T08:07:48.233Z,-0.49
2023-01-22T08:10:17.355Z,-0.45
2023-01-22T08:12:46.784Z,-0.46
2023-01-22T08:15:14.958Z,-0.44
2023-01-22T08:17:43.332Z,-0.44
2023-01-22T08:20:12.525Z,-0.43
2023-01-22T08:22:41.937Z,-0.39
2023-01-22T08:25:10.790Z,-0.45
2023-01-22T08:27:38.904Z,-0.41
2023-01-22T08:30:09.010Z,-0.41
2023-01-22T08:32:37.197Z,-0.48
2023-01-22T08:35:05.627Z,-0.45
2023-01-22T08:37:33.852Z,-0.44
2023-01-22T08:40:03.667Z,-0.44
2023-01-22T08:42:32.658Z,-0.39
2023-01-22T08:45:02.753Z,-0.40
2023-01-22T08:47:30.980Z,-0.42
2023-01-22T08:49:58.941Z,-0.34
2023-01-22T08:52:27.134Z,-0.26
2023-01-22T08:54:55.761Z,-0.30
2023-01-22T08:57:25.111Z,-0.31
2023-01-22T09:00:01.090Z,-0.33
2023-01-22T09:02:30.197Z,-0.31
2023-01-22T09:04:58.248Z,-0.35
2023-01-22T09:07:26.410Z,-0.27
2023-01-22T09:09:55.640Z,-0.28
2023-01-22T09:12:25.062Z,-0.21
2023-01-22T09:14:53.086Z,-0.24
2023-01-22T09:17:21.216Z,-0.25
2023-01-22T09:19:50.431Z,-0.25
2023-01-22T09:22:18.777Z,-0.15
2023-01-22T09:24:47.538Z,-0.15
2023-01-22T09:27:15.586Z,-0.15
2023-01-22T09:29:45.131Z,-0.09
2023-01-22T09:32:13.460Z,-0.14
2023-01-22T09:34:41.533Z,-0.15
2023-01-22T09:37:10.406Z,-0.02
2023-01-22T09:39:38.487Z,-0.01
2023-01-22T09:42:06.698Z,-0.01
2023-01-22T09:44:38.889Z,0.09
2023-01-22T09:47:10.845Z,0.08
2023-01-22T09:49:40.045Z,0.07
2023-01-22T09:52:08.282Z,0.05
2023-01-22T09:54:36.327Z,0.08
2023-01-22T09:57:06.223Z,-0.04
2023-01-22T09:59:38.693Z,0.10
2023-01-22T10:02:23.155Z,0.02
2023-01-22T10:04:53.113Z,0.21
2023-01-22T10:07:25.352Z,0.15
2023-01-22T10:09:54.805Z,0.12
2023-01-22T10:12:22.883Z,0.12
2023-01-22T10:14:50.974Z,0.37
2023-01-22T10:17:21.333Z,0.35
2023-01-22T10:19:51.517Z,0.26
2023-01-22T10:22:21.166Z,0.33
2023-01-22T10:24:50.837Z,0.30
2023-01-22T10:27:20.002Z,0.33
2023-01-22T10:29:57.389Z,0.23
2023-01-22T10:32:27.934Z,0.43
2023-01-22T10:35:00.492Z,0.38
2023-01-22T10:37:29.448Z,0.60
2023-01-22T10:39:58.745Z,0.53
2023-01-22T10:42:27.979Z,0.63
2023-01-22T10:44:56.552Z,0.72
2023-01-22T10:47:27.945Z,0.68
2023-01-22T10:50:04.735Z,0.79
2023-01-22T10:52:36.115Z,0.70
2023-01-22T10:55:04.651Z,0.69
2023-01-22T10:57:34.707Z,0.62
2023-01-22T11:00:07.338Z,0.77
2023-01-22T11:02:37.219Z,0.68
2023-01-22T11:05:09.154Z,0.83
2023-01-22T11:07:37.161Z,0.78
2023-01-22T11:10:08.434Z,0.68
2023-01-22T11:12:38.119Z,0.83
2023-01-22T11:15:07.945Z,0.84
2023-01-22T11:17:39.626Z,0.96
2023-01-22T11:20:15.681Z,0.91
2023-01-22T11:22:45.110Z,0.86
2023-01-22T11:25:13.618Z,0.97
2023-01-22T11:27:56.231Z,0.63
2023-01-22T11:30:54.661Z,0.71
2023-01-22T11:33:50.967Z,0.65
2023-01-22T11:36:22.388Z,0.81
2023-01-22T11:38:52.731Z,0.86
2023-01-22T11:41:50.703Z,0.76
2023-01-22T11:44:43.409Z,0.68
2023-01-22T11:47:23.601Z,0.77
2023-01-22T11:49:59.505Z,0.82
2023-01-22T11:52:32.997Z,0.63
2023-01-22T11:55:40.095Z,0.74
2023-01-22T11:58:12.737Z,0.76
2023-01-22T12:00:44.953Z,0.83
2023-01-22T12:03:33.572Z,0.81
2023-01-22T12:06:12.983Z,0.89
2023-01-22T12:08:50.771Z,0.73
2023-01-22T12:11:26.844Z,0.62
2023-01-22T12:14:12.996Z,0.65
2023-01-22T12:16:46.074Z,0.48
2023-01-22T12:19:28.680Z,0.61
2023-01-22T12:22:01.206Z,0.55
2023-01-22T12:24:32.267Z,0.56
2023-01-22T12:27:03.144Z,0.57
2023-01-22T12:29:34.739Z,0.50
2023-01-22T12:32:09.154Z,0.54
2023-01-22T12:34:41.311Z,0.53
2023-01-22T12:37:11.929Z,0.49
2023-01-22T12:39:42.281Z,0.59
2023-01-22T12:42:17.950Z,0.33
2023-01-22T12:44:51.825Z,0.54
2023-01-22T12:47:22.791Z,0.56
2023-01-22T12:49:52.222Z,0.46
2023-01-22T12:52:33.183Z,0.50
2023-01-22T12:55:01.462Z,0.40
2023-01-22T12:57:37.992Z,0.42
2023-01-22T13:00:24.014Z,0.47
2023-01-22T13:02:52.444Z,0.31
2023-01-22T13:05:23.277Z,0.33
2023-01-22T13:08:03.349Z,0.33
2023-01-22T13:10:32.332Z,0.39
2023-01-22T13:13:02.706Z,0.40
2023-01-22T13:15:32.388Z,0.33
2023-01-22T13:18:07.698Z,0.49
2023-01-22T13:20:36.913Z,0.55
2023-01-22T13:23:06.586Z,0.49
2023-01-22T13:25:34.783Z,0.58
2023-01-22T13:28:04.097Z,0.46
2023-01-22T13:30:32.853Z,0.63
2023-01-22T13:33:16.527Z,0.55
2023-01-22T13:35:44.902Z,0.58
2023-01-22T13:38:20.408Z,0.52
2023-01-22T13:40:51.769Z,0.30
2023-01-22T13:43:20.545Z,0.37
2023-01-22T13:45:49.089Z,0.34
2023-01-22T13:48:19.226Z,0.45
2023-01-22T13:50:48.038Z,0.46
2023-01-22T13:53:25.260Z,0.53
2023-01-22T13:55:53.280Z,0.45
2023-01-22T13:58:48.901Z,0.59
2023-01-22T14:01:28.397Z,0.51
2023-01-22T14:03:59.855Z,0.47
2023-01-22T14:06:27.841Z,0.57
2023-01-22T14:08:58.158Z,0.49
2023-01-22T14:11:26.152Z,0.57
2023-01-22T14:13:54.543Z,0.40
2023-01-22T14:16:22.541Z,0.57
2023-01-22T14:18:50.772Z,0.47
2023-01-22T14:21:18.892Z,0.47
2023-01-22T14:23:46.955Z,0.44
2023-01-22T14:26:16.905Z,0.45
2023-01-22T14:28:44.913Z,0.45
2023-01-22T14:31:12.956Z,0.37
2023-01-22T14:33:41.049Z,0.51
2023-01-22T14:36:10.016Z,0.51
2023-01-22T14:38:38.018Z,0.48
2023-01-22T14:41:06.344Z,0.59
2023-01-22T14:43:36.293Z,0.47
2023-01-22T14:46:08.275Z,0.44
2023-01-22T14:48:36.449Z,0.46
2023-01-22T14:51:10.200Z,0.48
2023-01-22T14:53:39.137Z,0.49
2023-01-22T14:56:08.613Z,0.50
2023-01-22T14:58:37.983Z,0.48
2023-01-22T15:01:16.119Z,0.48
2023-01-22T15:03:44.201Z,0.38
2023-01-22T15:06:12.183Z,0.43
2023-01-22T15:08:40.488Z,0.29
2023-01-22T15:11:08.527Z,0.37
2023-01-22T15:13:37.978Z,0.34
2023-01-22T15:16:06.922Z,0.51
2023-01-22T15:18:38.029Z,0.38
2023-01-22T15:21:06.761Z,0.49
2023-01-22T15:23:35.441Z,0.46
2023-01-22T15:26:05.422Z,0.46
2023-01-22T15:28:33.600Z,0.47
2023-01-22T15:31:07.799Z,0.34
2023-01-22T15:33:43.215Z,0.30
2023-01-22T15:36:13.890Z,0.33
2023-01-22T15:38:42.034Z,0.42
2023-01-22T15:41:19.558Z,0.38
2023-01-22T15:43:50.860Z,0.29
2023-01-22T15:46:23.589Z,0.33
2023-01-22T15:48:51.751Z,0.32
2023-01-22T15:51:20.094Z,0.35
2023-01-22T15:53:50.866Z,0.34
2023-01-22T15:56:22.527Z,0.35
2023-01-22T15:58:51.186Z,0.27
2023-01-22T16:01:21.191Z,0.47
2023-01-22T16:03:49.493Z,0.32
2023-01-22T16:06:18.360Z,0.41
2023-01-22T16:08:47.099Z,0.54
2023-01-22T16:11:15.176Z,0.49
2023-01-22T16:13:43.716Z,0.41
2023-01-22T16:16:16.754Z,0.56
2023-01-22T16:18:46.455Z,0.47
2023-01-22T16:21:14.720Z,0.45
2023-01-22T16:23:43.870Z,0.43
2023-01-22T16:26:15.064Z,0.33
2023-01-22T16:28:43.190Z,0.39
2023-01-22T16:31:12.972Z,0.42
2023-01-22T16:33:43.512Z,0.68
2023-01-22T16:36:16.708Z,0.53
2023-01-22T16:38:44.669Z,0.60
2023-01-22T16:41:27.999Z,0.68
2023-01-22T16:43:59.338Z,0.66
2023-01-22T16:46:28.456Z,0.76
2023-01-22T16:48:57.733Z,0.52
2023-01-22T16:51:28.097Z,0.57
2023-01-22T16:53:56.328Z,0.46
2023-01-22T16:56:24.300Z,0.49
2023-01-22T16:58:52.402Z,0.48
2023-01-22T17:01:20.834Z,0.52
2023-01-22T17:03:52.950Z,0.53
2023-01-22T17:06:31.693Z,0.61
2023-01-22T17:09:07.839Z,0.52
2023-01-22T17:11:35.888Z,0.59
2023-01-22T17:14:08.042Z,0.65
2023-01-22T17:16:36.039Z,0.58
2023-01-22T17:19:04.858Z,0.54
2023-01-22T17:21:34.749Z,0.58
2023-01-22T17:24:03.905Z,0.67
2023-01-22T17:26:32.092Z,0.76
2023-01-22T17:29:00.098Z,0.63
2023-01-22T17:31:30.039Z,0.63
2023-01-22T17:33:59.053Z,0.68
2023-01-22T17:36:28.564Z,0.71
2023-01-22T17:38:58.135Z,0.70
2023-01-22T17:41:27.060Z,0.61
2023-01-22T17:43:57.790Z,0.62
2023-01-22T17:46:26.911Z,0.62
2023-01-22T17:48:55.085Z,0.48
2023-01-22T17:51:24.252Z,0.56
2023-01-22T17:53:52.695Z,0.60
2023-01-22T17:56:24.508Z,0.65
2023-01-22T17:58:54.125Z,0.64
2023-01-22T18:01:23.743Z,0.72
2023-01-22T18:03:51.984Z,0.67
2023-01-22T18:06:20.465Z,0.66
2023-01-22T18:08:49.360Z,0.65
2023-01-22T18:11:19.485Z,0.75
2023-01-22T18:13:49.093Z,0.82
2023-01-22T18:16:18.237Z,0.92
2023-01-22T18:18:46.406Z,0.83
2023-01-22T18:21:16.530Z,0.79
2023-01-22T18:23:44.616Z,0.89
2023-01-22T18:26:12.897Z,0.87
2023-01-22T18:28:40.933Z,0.90
2023-01-22T18:31:11.807Z,0.87
2023-01-22T18:33:39.941Z,0.93
2023-01-22T18:36:10.997Z,0.87
2023-01-22T18:38:39.047Z,0.91
2023-01-22T18:41:07.799Z,0.92
2023-01-22T18:43:36.746Z,0.87
2023-01-22T18:46:05.195Z,0.92
2023-01-22T18:48:34.653Z,0.76
2023-01-22T18:51:02.741Z,0.68
2023-01-22T18:53:32.660Z,0.79
2023-01-22T18:56:01.272Z,0.87
2023-01-22T18:58:30.611Z,0.81
2023-01-22T19:00:59.491Z,0.77
2023-01-22T19:03:27.562Z,0.88
2023-01-22T19:05:59.652Z,0.77
2023-01-22T19:08:27.695Z,0.83
2023-01-22T19:10:55.728Z,0.80
2023-01-22T19:13:24.275Z,0.74
2023-01-22T19:15:52.348Z,0.84
2023-01-22T19:18:23.273Z,0.98
2023-01-22T19:20:51.323Z,0.87
2023-01-22T19:23:22.085Z,0.90
2023-01-22T19:25:50.336Z,0.91
2023-01-22T19:28:19.282Z,1.08
2023-01-22T19:30:47.338Z,0.79
2023-01-22T19:33:15.464Z,0.97
2023-01-22T19:35:47.778Z,0.90
2023-01-22T19:38:17.980Z,0.88
2023-01-22T19:40:47.573Z,0.96
2023-01-22T19:43:16.036Z,1.12
2023-01-22T19:45:44.105Z,0.96
2023-01-22T19:48:12.264Z,1.04
2023-01-22T19:50:41.591Z,1.07
2023-01-22T19:53:09.707Z,1.02
2023-01-22T19:55:38.001Z,1.16
2023-01-22T19:58:07.405Z,1.00
2023-01-22T20:00:35.874Z,1.11
2023-01-22T20:03:06.651Z,1.07
2023-01-22T20:05:35.626Z,0.96
2023-01-22T20:08:03.699Z,0.99
2023-01-22T20:10:32.993Z,0.99
2023-01-22T20:13:01.564Z,1.07
2023-01-22T20:15:31.159Z,1.02
2023-01-22T20:17:59.187Z,1.20
2023-01-22T20:20:27.852Z,1.25
2023-01-22T20:22:56.020Z,1.00
2023-01-22T20:25:24.197Z,1.07
2023-01-22T20:27:52.466Z,1.05
2023-01-22T20:30:20.652Z,1.18
2023-01-22T20:32:50.153Z,1.13
2023-01-22T20:35:19.385Z,0.90
2023-01-22T20:37:47.720Z,0.93
2023-01-22T20:40:15.726Z,0.93
2023-01-22T20:42:44.050Z,0.93
2023-01-22T20:45:12.093Z,1.06
2023-01-22T20:47:40.049Z,1.18
2023-01-22T20:50:10.759Z,1.07
2023-01-22T20:52:39.389Z,1.18
2023-01-22T20:55:10.061Z,1.23
2023-01-22T20:57:38.077Z,1.09
2023-01-22T21:00:07.403Z,1.17
2023-01-22T21:02:35.454Z,1.03
2023-01-22T21:05:03.933Z,1.14
2023-01-22T21:07:33.530Z,1.17
2023-01-22T21:10:01.642Z,1.33
2023-01-22T21:12:29.831Z,1.20
2023-01-22T21:14:57.768Z,1.17
2023-01-22T21:17:25.829Z,1.17
2023-01-22T21:19:55.287Z,1.21
2023-01-22T21:22:23.263Z,1.21
2023-01-22T21:24:52.766Z,1.16
2023-01-22T21:27:20.846Z,1.26
2023-01-22T21:29:50.417Z,1.27
2023-01-22T21:32:19.372Z,1.27
2023-01-22T21:34:48.271Z,1.20
2023-01-22T21:37:16.284Z,1.35
2023-01-22T21:39:45.342Z,1.22
2023-01-22T21:42:32.184Z,1.35
2023-01-22T21:45:18.051Z,1.41
2023-01-22T21:47:46.033Z,1.42
2023-01-22T21:50:14.032Z,1.45
2023-01-22T21:52:44.840Z,1.40
2023-01-22T21:55:14.067Z,1.24
2023-01-22T21:57:44.199Z,1.53
2023-01-22T22:00:13.799Z,1.31
2023-01-22T22:02:45.247Z,1.51
2023-01-22T22:05:13.305Z,1.44
2023-01-22T22:07:41.343Z,1.34
2023-01-22T22:10:12.665Z,1.38
2023-01-22T22:12:40.689Z,1.37
2023-01-22T22:15:11.688Z,1.37
2023-01-22T22:17:39.730Z,1.31
2023-01-22T22:20:10.056Z,1.37
2023-01-22T22:22:38.176Z,1.35
2023-01-22T22:25:06.999Z,1.32
2023-01-22T22:27:35.100Z,1.51
2023-01-22T22:30:04.367Z,1.29
2023-01-22T22:32:34.256Z,1.31
2023-01-22T22:35:03.638Z,1.31
2023-01-22T22:37:31.710Z,1.31
2023-01-22T22:40:02.632Z,1.31
2023-01-22T22:42:30.681Z,1.45
2023-01-22T22:44:58.696Z,1.55
2023-01-22T22:47:26.894Z,1.49
2023-01-22T22:49:56.256Z,1.39
2023-01-22T22:52:24.241Z,1.37
2023-01-22T22:54:52.325Z,1.35
2023-01-22T22:57:20.471Z,1.56
2023-01-22T22:59:48.546Z,1.40
2023-01-22T23:02:16.694Z,1.68
2023-01-22T23:04:45.033Z,1.59
2023-01-22T23:07:14.576Z,1.59
2023-01-22T23:09:42.628Z,1.62
2023-01-22T23:12:10.728Z,1.73
2023-01-22T23:14:38.782Z,1.76
2023-01-22T23:17:06.820Z,1.73
2023-01-22T23:19:35.033Z,1.58
2023-01-22T23:22:03.156Z,1.71
2023-01-22T23:24:34.049Z,1.65
2023-01-22T23:27:02.071Z,1.58
2023-01-22T23:29:30.090Z,1.70
2023-01-22T23:31:58.606Z,1.72
2023-01-22T23:34:26.609Z,1.55
2023-01-22T23:36:54.685Z,1.58
2023-01-22T23:39:22.913Z,1.60
2023-01-22T23:41:52.339Z,1.70
2023-01-22T23:44:20.543Z,1.57
2023-01-22T23:46:50.978Z,1.57
2023-01-22T23:49:22.176Z,1.54
2023-01-22T23:51:52.721Z,1.59
2023-01-22T23:54:20.770Z,1.77
2023-01-22T23:56:48.799Z,1.84
2023-01-22T23:59:18.283Z,1.76
